createdAt,value
2023-04-09T00:01:04.845Z,35.70
2023-04-09T00:03:32.360Z,36.87
2023-04-09T00:05:59.591Z,32.73
2023-04-09T00:08:26.901Z,33.13
2023-04-09T00:10:54.580Z,34.67
2023-04-09T00:13:35.436Z,31.97
2023-04-09T00:16:07.114Z,33.23
2023-04-09T00:18:34.380Z,33.10
2023-04-09T00:21:01.439Z,33.33
2023-04-09T00:23:28.466Z,37.17
2023-04-09T00:25:55.555Z,34.10
2023-04-09T00:28:22.619Z,34.73
2023-04-09T00:30:49.694Z,34.90
2023-04-09T00:33:18.125Z,33.53
2023-04-09T00:35:45.336Z,34.87
2023-04-09T00:38:12.510Z,34.80
2023-04-09T00:40:39.567Z,32.20
2023-04-09T00:43:06.679Z,35.50
2023-04-09T00:45:33.890Z,36.63
2023-04-09T00:48:01.471Z,36.17
2023-04-09T00:50:30.012Z,35.20
2023-04-09T00:52:57.164Z,35.50
2023-04-09T00:55:24.461Z,34.53
2023-04-09T00:57:51.533Z,35.33
2023-04-09T01:00:18.912Z,38.17
2023-04-09T01:02:46.430Z,33.33
2023-04-09T01:05:13.955Z,32.40
2023-04-09T01:07:55.169Z,32.40
2023-04-09T01:10:39.159Z,35.10
2023-04-09T01:13:08.676Z,35.57
2023-04-09T01:15:37.984Z,35.53
2023-04-09T01:18:10.636Z,35.03
2023-04-09T01:20:40.209Z,34.23
2023-04-09T01:23:19.537Z,35.40
2023-04-09T01:25:54.284Z,36.73
2023-04-09T01:28:24.278Z,33.70
2023-04-09T01:30:54.193Z,36.80
2023-04-09T01:33:21.887Z,36.67
2023-04-09T01:35:50.145Z,35.87
2023-04-09T01:38:18.954Z,35.60
2023-04-09T01:40:46.545Z,36.90
2023-04-09T01:43:14.029Z,35.17
2023-04-09T01:45:43.484Z,37.97
2023-04-09T01:48:10.793Z,36.03
2023-04-09T01:50:37.994Z,35.03
2023-04-09T01:53:05.110Z,33.50
2023-04-09T01:55:32.460Z,33.60
2023-04-09T01:57:59.587Z,32.93
2023-04-09T02:00:31.520Z,33.10
2023-04-09T02:03:05.788Z,32.80
2023-04-09T02:05:35.002Z,31.90
2023-04-09T02:08:03.739Z,31.07
2023-04-09T02:10:31.396Z,32.70
2023-04-09T02:12:58.741Z,29.20
2023-04-09T02:15:26.747Z,28.13
2023-04-09T02:17:53.841Z,29.47
2023-04-09T02:20:22.255Z,28.40
2023-04-09T02:22:49.292Z,27.90
2023-04-09T02:25:16.331Z,28.70
2023-04-09T02:27:43.383Z,27.97
2023-04-09T02:30:10.672Z,26.93
2023-04-09T02:32:37.903Z,26.13
2023-04-09T02:35:05.300Z,25.43
2023-04-09T02:37:33.699Z,25.57
2023-04-09T02:40:00.748Z,26.20
2023-04-09T02:42:28.075Z,25.80
2023-04-09T02:44:55.164Z,25.00
2023-04-09T02:47:23.181Z,24.67
2023-04-09T02:49:50.264Z,27.10
2023-04-09T02:52:17.859Z,24.90
2023-04-09T02:54:46.340Z,26.37
2023-04-09T02:57:13.383Z,27.63
2023-04-09T02:59:40.481Z,26.37
2023-04-09T03:02:07.621Z,25.70
2023-04-09T03:04:34.869Z,27.60
2023-04-09T03:07:01.974Z,27.87
2023-04-09T03:09:29.039Z,27.47
2023-04-09T03:11:57.468Z,27.67
2023-04-09T03:14:24.576Z,28.77
2023-04-09T03:16:51.661Z,25.80
2023-04-09T03:19:19.068Z,25.87
2023-04-09T03:21:46.118Z,25.13
2023-04-09T03:24:13.689Z,28.00
2023-04-09T03:26:41.383Z,26.53
2023-04-09T03:29:10.187Z,27.07
2023-04-09T03:31:37.283Z,28.00
2023-04-09T03:34:04.418Z,26.10
2023-04-09T03:36:34.092Z,27.10
2023-04-09T03:39:03.304Z,27.43
2023-04-09T03:41:36.679Z,26.63
2023-04-09T03:44:07.022Z,25.50
2023-04-09T03:46:45.995Z,24.83
2023-04-09T03:49:16.604Z,25.30
2023-04-09T03:51:45.088Z,24.00
2023-04-09T03:54:12.950Z,23.60
2023-04-09T03:56:41.024Z,24.60
2023-04-09T03:59:11.250Z,27.07
2023-04-09T04:01:41.333Z,23.77
2023-04-09T04:04:10.731Z,25.80
2023-04-09T04:06:44.123Z,24.37
2023-04-09T04:09:29.847Z,29.50
2023-04-09T04:12:07.724Z,25.63
2023-04-09T04:14:54.959Z,25.23
2023-04-09T04:17:29.119Z,26.83
2023-04-09T04:19:57.724Z,26.10
2023-04-09T04:22:26.214Z,26.43
2023-04-09T04:24:56.242Z,24.77
2023-04-09T04:27:23.929Z,26.47
2023-04-09T04:29:51.593Z,26.17
2023-04-09T04:32:36.857Z,25.40
2023-04-09T04:35:09.927Z,25.40
2023-04-09T04:37:37.850Z,25.53
2023-04-09T04:40:06.351Z,23.70
2023-04-09T04:42:37.432Z,23.50
2023-04-09T04:45:10.659Z,25.20
2023-04-09T04:47:43.509Z,24.33
2023-04-09T04:50:12.251Z,26.47
2023-04-09T04:52:51.962Z,24.20
2023-04-09T04:55:20.971Z,23.20
2023-04-09T04:57:50.936Z,23.83
2023-04-09T05:00:18.510Z,25.00
2023-04-09T05:02:46.046Z,25.33
2023-04-09T05:05:21.580Z,25.30
2023-04-09T05:07:52.997Z,26.10
2023-04-09T05:10:20.906Z,26.30
2023-04-09T05:12:48.084Z,28.40
2023-04-09T05:15:22.951Z,29.00
2023-04-09T05:17:50.124Z,26.20
2023-04-09T05:20:17.777Z,28.23
2023-04-09T05:22:57.014Z,25.30
2023-04-09T05:25:30.311Z,26.17
2023-04-09T05:27:58.027Z,27.57
2023-04-09T05:30:26.294Z,24.70
2023-04-09T05:32:54.404Z,28.30
2023-04-09T05:35:24.675Z,24.87
2023-04-09T05:37:51.795Z,24.47
2023-04-09T05:40:20.497Z,24.77
2023-04-09T05:42:47.647Z,24.67
2023-04-09T05:45:25.303Z,24.47
2023-04-09T05:47:53.706Z,20.90
2023-04-09T05:50:23.036Z,22.37
2023-04-09T05:52:52.971Z,20.30
2023-04-09T05:55:22.564Z,22.33
2023-04-09T05:57:54.968Z,22.10
2023-04-09T06:00:22.403Z,22.00
2023-04-09T06:02:50.876Z,20.20
2023-04-09T06:05:18.064Z,20.33
2023-04-09T06:07:46.800Z,19.03
2023-04-09T06:10:14.684Z,21.10
2023-04-09T06:12:43.484Z,19.93
2023-04-09T06:15:10.999Z,19.00
2023-04-09T06:17:38.063Z,19.23
2023-04-09T06:20:05.517Z,15.90
2023-04-09T06:22:32.686Z,16.83
2023-04-09T06:25:00.183Z,17.37
2023-04-09T06:27:27.184Z,16.47
2023-04-09T06:29:55.525Z,15.67
2023-04-09T06:32:22.614Z,15.10
2023-04-09T06:34:49.730Z,16.77
2023-04-09T06:37:16.800Z,15.60
2023-04-09T06:39:47.707Z,15.97
2023-04-09T06:42:27.338Z,13.60
2023-04-09T06:45:08.460Z,13.97
2023-04-09T06:47:35.646Z,14.10
2023-04-09T06:50:02.722Z,14.10
2023-04-09T06:52:29.859Z,12.83
2023-04-09T06:54:56.916Z,11.90
2023-04-09T06:57:24.043Z,12.87
2023-04-09T06:59:51.070Z,12.30
2023-04-09T07:02:19.608Z,11.43
2023-04-09T07:04:46.886Z,11.80
2023-04-09T07:07:14.258Z,12.07
2023-04-09T07:09:41.320Z,11.90
2023-04-09T07:12:08.464Z,11.33
2023-04-09T07:14:35.535Z,11.80
2023-04-09T07:17:02.617Z,11.63
2023-04-09T07:19:31.032Z,11.90
2023-04-09T07:21:58.202Z,12.53
2023-04-09T07:24:25.354Z,11.40
2023-04-09T07:26:52.689Z,11.67
2023-04-09T07:29:19.846Z,11.87
2023-04-09T07:31:46.983Z,11.20
2023-04-09T07:34:14.088Z,11.30
2023-04-09T07:36:42.856Z,10.03
2023-04-09T07:39:10.080Z,11.63
2023-04-09T07:41:37.172Z,11.33
2023-04-09T07:44:04.341Z,11.20
2023-04-09T07:46:31.521Z,9.10
2023-04-09T07:48:58.620Z,11.23
2023-04-09T07:51:25.782Z,9.73
2023-04-09T07:53:54.144Z,10.80
2023-04-09T07:56:21.191Z,10.70
2023-04-09T07:58:48.241Z,9.97
2023-04-09T08:01:15.339Z,9.90
2023-04-09T08:03:42.544Z,10.13
2023-04-09T08:06:09.740Z,10.80
2023-04-09T08:08:36.768Z,10.97
2023-04-09T08:11:05.604Z,9.10
2023-04-09T08:13:32.675Z,9.47
2023-04-09T08:16:00.930Z,9.57
2023-04-09T08:18:28.014Z,10.37
2023-04-09T08:20:55.059Z,8.60
2023-04-09T08:23:22.169Z,8.67
2023-04-09T08:25:49.254Z,8.90
2023-04-09T08:28:17.650Z,8.20
2023-04-09T08:30:44.709Z,9.17
2023-04-09T08:33:11.783Z,7.63
2023-04-09T08:35:38.862Z,8.17
2023-04-09T08:38:05.909Z,8.30
2023-04-09T08:40:34.922Z,8.00
2023-04-09T08:43:04.701Z,9.27
2023-04-09T08:45:33.325Z,8.27
2023-04-09T08:48:00.702Z,8.57
2023-04-09T08:50:27.980Z,7.87
2023-04-09T08:52:55.139Z,8.90
2023-04-09T08:55:22.502Z,8.00
2023-04-09T08:57:49.572Z,7.87
2023-04-09T09:00:16.651Z,8.70
2023-04-09T09:02:58.782Z,8.17
2023-04-09T09:05:35.695Z,6.23
2023-04-09T09:08:02.788Z,6.93
2023-04-09T09:10:37.786Z,7.03
2023-04-09T09:13:16.362Z,6.60
2023-04-09T09:15:43.585Z,6.23
2023-04-09T09:18:10.710Z,7.37
2023-04-09T09:20:39.129Z,6.03
2023-04-09T09:23:06.192Z,6.47
2023-04-09T09:25:38.156Z,6.10
2023-04-09T09:28:08.941Z,6.57
2023-04-09T09:30:37.106Z,5.77
2023-04-09T09:33:08.487Z,6.73
2023-04-09T09:35:49.729Z,6.17
2023-04-09T09:38:16.964Z,5.43
2023-04-09T09:40:44.119Z,5.40
2023-04-09T09:43:12.291Z,5.67
2023-04-09T09:45:41.177Z,5.77
2023-04-09T09:48:08.700Z,5.60
2023-04-09T09:50:36.087Z,5.30
2023-04-09T09:53:05.365Z,5.33
2023-04-09T09:55:33.023Z,5.30
2023-04-09T09:58:01.866Z,5.20
2023-04-09T10:00:29.477Z,5.80
2023-04-09T10:02:57.690Z,5.90
2023-04-09T10:05:25.003Z,6.83
2023-04-09T10:07:52.346Z,5.83
2023-04-09T10:10:20.941Z,5.97
2023-04-09T10:12:48.048Z,6.33
2023-04-09T10:15:15.195Z,5.60
2023-04-09T10:17:42.326Z,6.27
2023-04-09T10:20:11.770Z,5.93
2023-04-09T10:22:39.072Z,6.80
2023-04-09T10:25:06.676Z,7.17
2023-04-09T10:27:35.118Z,6.63
2023-04-09T10:30:02.255Z,7.40
2023-04-09T10:32:35.161Z,7.07
2023-04-09T10:35:03.398Z,7.20
2023-04-09T10:37:30.485Z,7.50
2023-04-09T10:39:57.600Z,6.63
2023-04-09T10:42:26.718Z,6.20
2023-04-09T10:45:09.262Z,6.70
2023-04-09T10:47:37.017Z,6.27
2023-04-09T10:50:17.256Z,5.83
2023-04-09T10:52:44.654Z,6.30
2023-04-09T10:55:30.261Z,6.33
2023-04-09T10:57:57.401Z,5.50
2023-04-09T11:00:25.804Z,6.07
2023-04-09T11:03:02.006Z,6.50
2023-04-09T11:05:32.775Z,6.23
2023-04-09T11:08:04.694Z,5.50
2023-04-09T11:10:31.921Z,6.50
2023-04-09T11:12:58.946Z,5.90
2023-04-09T11:15:27.455Z,6.47
2023-04-09T11:17:54.582Z,6.30
2023-04-09T11:20:22.589Z,5.60
2023-04-09T11:22:49.945Z,5.60
2023-04-09T11:25:20.339Z,6.10
2023-04-09T11:27:47.420Z,6.90
2023-04-09T11:30:14.824Z,6.83
2023-04-09T11:32:43.234Z,5.90
2023-04-09T11:35:13.962Z,7.23
2023-04-09T11:37:41.498Z,7.33
2023-04-09T11:40:08.995Z,6.63
2023-04-09T11:42:36.048Z,6.50
2023-04-09T11:45:04.031Z,6.30
2023-04-09T11:47:32.040Z,6.73
2023-04-09T11:50:00.568Z,6.03
2023-04-09T11:52:27.824Z,6.40
2023-04-09T11:54:54.890Z,5.67
2023-04-09T11:57:22.031Z,8.43
2023-04-09T11:59:49.096Z,6.37
2023-04-09T12:02:18.421Z,6.53
2023-04-09T12:04:49.839Z,6.47
2023-04-09T12:07:18.391Z,6.77
2023-04-09T12:09:48.944Z,6.00
2023-04-09T12:12:19.078Z,6.63
2023-04-09T12:14:46.426Z,6.80
2023-04-09T12:17:13.525Z,6.70
2023-04-09T12:19:40.580Z,6.03
2023-04-09T12:22:07.580Z,6.17
2023-04-09T12:24:35.916Z,5.93
2023-04-09T12:27:02.954Z,6.90
2023-04-09T12:29:29.983Z,6.40
2023-04-09T12:31:57.027Z,6.57
2023-04-09T12:34:24.195Z,6.33
2023-04-09T12:36:51.217Z,5.97
2023-04-09T12:39:18.233Z,6.43
2023-04-09T12:41:46.687Z,6.63
2023-04-09T12:44:13.719Z,6.30
2023-04-09T12:46:40.764Z,6.20
2023-04-09T12:49:07.835Z,5.47
2023-04-09T12:51:34.924Z,7.00
2023-04-09T12:54:02.004Z,5.70
2023-04-09T12:56:29.871Z,6.43
2023-04-09T12:58:58.293Z,6.10
2023-04-09T13:01:25.431Z,6.00
2023-04-09T13:03:52.942Z,5.60
2023-04-09T13:06:20.323Z,5.13
2023-04-09T13:08:47.399Z,5.70
2023-04-09T13:11:14.482Z,6.10
2023-04-09T13:13:42.656Z,5.17
2023-04-09T13:16:11.133Z,5.23
2023-04-09T13:18:38.200Z,5.07
2023-04-09T13:21:05.334Z,5.17
2023-04-09T13:23:32.416Z,5.63
2023-04-09T13:25:59.496Z,4.97
2023-04-09T13:28:26.539Z,5.17
2023-04-09T13:30:53.598Z,5.20
2023-04-09T13:33:21.972Z,5.93
2023-04-09T13:35:49.117Z,4.67
2023-04-09T13:38:16.207Z,4.60
2023-04-09T13:40:43.305Z,5.67
2023-04-09T13:43:10.347Z,5.30
2023-04-09T13:45:37.433Z,5.07
2023-04-09T13:48:04.666Z,5.50
2023-04-09T13:50:33.082Z,5.87
2023-04-09T13:53:00.115Z,5.13
2023-04-09T13:55:27.218Z,5.03
2023-04-09T13:57:54.302Z,6.10
2023-04-09T14:00:21.377Z,5.27
2023-04-09T14:02:48.545Z,4.60
2023-04-09T14:05:15.675Z,5.40
2023-04-09T14:07:44.165Z,5.10
2023-04-09T14:10:11.544Z,5.30
2023-04-09T14:12:38.567Z,5.73
2023-04-09T14:15:06.178Z,5.20
2023-04-09T14:17:33.286Z,5.90
2023-04-09T14:20:00.309Z,4.80
2023-04-09T14:22:28.049Z,5.13
2023-04-09T14:24:56.424Z,5.90
2023-04-09T14:27:23.495Z,5.40
2023-04-09T14:29:51.213Z,5.30
2023-04-09T14:32:18.290Z,5.93
2023-04-09T14:34:45.330Z,5.00
2023-04-09T14:37:12.396Z,5.00
2023-04-09T14:39:39.419Z,5.40
2023-04-09T14:42:07.830Z,5.63
2023-04-09T14:44:34.885Z,6.00
2023-04-09T14:47:02.088Z,5.47
2023-04-09T14:49:29.330Z,5.30
2023-04-09T14:51:56.356Z,5.23
2023-04-09T14:54:23.387Z,5.80
2023-04-09T14:56:50.510Z,5.50
2023-04-09T14:59:19.021Z,4.77
2023-04-09T15:01:46.230Z,5.50
2023-04-09T15:04:13.480Z,4.87
2023-04-09T15:06:40.584Z,5.00
2023-04-09T15:09:07.646Z,5.50
2023-04-09T15:11:34.671Z,4.70
2023-04-09T15:14:01.755Z,6.07
2023-04-09T15:16:30.297Z,4.57
2023-04-09T15:18:57.349Z,5.43
2023-04-09T15:21:24.603Z,4.70
2023-04-09T15:23:51.964Z,5.73
2023-04-09T15:26:19.111Z,5.30
2023-04-09T15:28:46.213Z,4.77
2023-04-09T15:31:13.348Z,5.00
2023-04-09T15:33:43.289Z,5.83
2023-04-09T15:36:10.418Z,5.53
2023-04-09T15:38:37.534Z,5.50
2023-04-09T15:41:05.507Z,5.50
2023-04-09T15:43:32.582Z,5.50
2023-04-09T15:45:59.696Z,5.30
2023-04-09T15:48:26.870Z,6.10
2023-04-09T15:50:55.259Z,5.30
2023-04-09T15:53:22.324Z,5.20
2023-04-09T15:55:49.387Z,5.60
2023-04-09T15:58:16.423Z,5.70
2023-04-09T16:00:43.488Z,5.60
2023-04-09T16:03:11.726Z,5.37
2023-04-09T16:05:39.404Z,4.80
2023-04-09T16:08:07.804Z,5.20
2023-04-09T16:10:34.893Z,4.83
2023-04-09T16:13:01.974Z,4.70
2023-04-09T16:15:29.074Z,5.80
2023-04-09T16:17:56.209Z,4.90
2023-04-09T16:20:23.307Z,5.50
2023-04-09T16:22:50.365Z,4.90
2023-04-09T16:25:18.868Z,4.83
2023-04-09T16:27:45.871Z,4.50
2023-04-09T16:30:13.625Z,5.03
2023-04-09T16:32:40.680Z,5.20
2023-04-09T16:35:07.998Z,4.83
2023-04-09T16:37:35.083Z,4.40
2023-04-09T16:40:02.242Z,4.43
2023-04-09T16:42:30.663Z,4.40
2023-04-09T16:44:57.744Z,4.93
2023-04-09T16:47:24.802Z,4.57
2023-04-09T16:49:51.929Z,5.17
2023-04-09T16:52:19.144Z,3.80
2023-04-09T16:54:46.265Z,4.93
2023-04-09T16:57:13.339Z,4.63
2023-04-09T16:59:41.723Z,4.70
2023-04-09T17:02:08.866Z,4.93
2023-04-09T17:04:35.946Z,5.10
2023-04-09T17:07:02.967Z,4.87
2023-04-09T17:09:30.528Z,4.20
2023-04-09T17:11:57.563Z,4.13
2023-04-09T17:14:24.604Z,4.33
2023-04-09T17:16:53.008Z,4.40
2023-04-09T17:19:20.123Z,4.10
2023-04-09T17:21:47.176Z,4.23
2023-04-09T17:24:14.248Z,4.50
2023-04-09T17:26:41.260Z,4.67
2023-04-09T17:29:08.332Z,4.57
2023-04-09T17:31:35.390Z,4.70
2023-04-09T17:34:03.785Z,5.80
2023-04-09T17:36:30.980Z,3.50
2023-04-09T17:38:58.067Z,3.53
2023-04-09T17:41:25.466Z,4.50
2023-04-09T17:43:52.502Z,3.60
2023-04-09T17:46:19.606Z,5.43
2023-04-09T17:48:46.788Z,3.60
2023-04-09T17:51:17.434Z,4.07
2023-04-09T17:53:44.848Z,4.13
2023-04-09T17:56:15.695Z,3.67
2023-04-09T17:58:42.791Z,3.90
2023-04-09T18:01:10.163Z,4.50
2023-04-09T18:03:37.721Z,4.23
2023-04-09T18:06:05.275Z,4.13
2023-04-09T18:08:33.654Z,4.33
2023-04-09T18:11:12.048Z,4.10
2023-04-09T18:13:40.522Z,4.60
2023-04-09T18:16:09.047Z,4.07
2023-04-09T18:18:36.119Z,4.37
2023-04-09T18:21:03.157Z,4.60
2023-04-09T18:23:30.210Z,4.53
2023-04-09T18:25:58.772Z,4.87
2023-04-09T18:28:25.859Z,4.40
2023-04-09T18:30:52.972Z,4.13
2023-04-09T18:33:20.101Z,4.60
2023-04-09T18:35:47.195Z,4.00
2023-04-09T18:38:14.284Z,4.13
2023-04-09T18:40:41.561Z,4.00
2023-04-09T18:43:10.499Z,4.70
2023-04-09T18:45:37.662Z,4.47
2023-04-09T18:48:04.966Z,4.60
2023-04-09T18:50:32.132Z,4.70
2023-04-09T18:52:59.302Z,4.30
2023-04-09T18:55:26.398Z,4.00
2023-04-09T18:57:53.428Z,4.00
2023-04-09T19:00:21.858Z,4.50
2023-04-09T19:02:49.043Z,4.87
2023-04-09T19:05:16.284Z,4.60
2023-04-09T19:07:43.379Z,3.80
2023-04-09T19:10:10.872Z,4.60
2023-04-09T19:12:38.164Z,4.50
2023-04-09T19:15:05.533Z,5.40
2023-04-09T19:17:33.979Z,5.77
2023-04-09T19:20:01.154Z,5.00
2023-04-09T19:22:28.253Z,4.73
2023-04-09T19:24:55.287Z,4.30
2023-04-09T19:27:22.580Z,4.90
2023-04-09T19:29:49.621Z,4.87
2023-04-09T19:32:16.715Z,4.70
2023-04-09T19:34:45.172Z,5.40
2023-04-09T19:37:12.285Z,5.40
2023-04-09T19:39:39.380Z,4.63
2023-04-09T19:42:06.484Z,4.60
2023-04-09T19:44:33.572Z,5.30
2023-04-09T19:47:00.657Z,5.63
2023-04-09T19:49:27.763Z,5.63
2023-04-09T19:51:56.267Z,5.00
2023-04-09T19:54:23.404Z,5.93
2023-04-09T19:56:50.485Z,5.33
2023-04-09T19:59:17.562Z,6.37
2023-04-09T20:01:44.707Z,5.43
2023-04-09T20:04:11.918Z,6.37
2023-04-09T20:06:39.020Z,5.57
2023-04-09T20:09:07.402Z,5.43
2023-04-09T20:11:34.485Z,5.70
2023-04-09T20:14:01.592Z,6.87
2023-04-09T20:16:28.683Z,6.60
2023-04-09T20:18:55.918Z,6.30
2023-04-09T20:21:23.017Z,6.30
2023-04-09T20:23:50.040Z,5.70
2023-04-09T20:26:18.479Z,6.50
2023-04-09T20:28:45.537Z,6.03
2023-04-09T20:31:12.612Z,6.10
2023-04-09T20:33:39.724Z,5.67
2023-04-09T20:36:14.025Z,5.93
2023-04-09T20:38:41.121Z,5.93
2023-04-09T20:41:08.199Z,6.03
2023-04-09T20:43:36.599Z,5.90
2023-04-09T20:46:03.693Z,6.10
2023-04-09T20:48:30.976Z,5.37
2023-04-09T20:50:58.168Z,6.50
2023-04-09T20:53:25.228Z,5.20
2023-04-09T20:55:52.346Z,5.80
2023-04-09T20:58:19.435Z,5.40
2023-04-09T21:00:47.850Z,6.30
2023-04-09T21:03:15.023Z,6.17
2023-04-09T21:05:42.193Z,5.97
2023-04-09T21:08:09.359Z,6.97
2023-04-09T21:10:36.522Z,6.30
2023-04-09T21:13:03.591Z,6.37
2023-04-09T21:15:30.627Z,6.60
2023-04-09T21:17:59.081Z,6.20
2023-04-09T21:20:26.254Z,6.93
2023-04-09T21:22:53.369Z,6.40
2023-04-09T21:25:20.431Z,6.87
2023-04-09T21:27:47.444Z,7.27
2023-04-09T21:30:14.462Z,7.20
2023-04-09T21:32:41.582Z,5.77
2023-04-09T21:35:10.185Z,6.60
2023-04-09T21:37:37.545Z,5.50
2023-04-09T21:40:04.951Z,6.13
2023-04-09T21:42:31.974Z,6.60
2023-04-09T21:44:59.155Z,6.20
2023-04-09T21:47:26.287Z,6.40
2023-04-09T21:49:53.440Z,7.07
2023-04-09T21:52:21.896Z,6.37
2023-04-09T21:54:49.004Z,6.47
2023-04-09T21:57:16.197Z,6.13
2023-04-09T21:59:43.302Z,6.70
2023-04-09T22:02:10.439Z,6.40
2023-04-09T22:04:37.747Z,6.27
2023-04-09T22:07:04.976Z,6.73
2023-04-09T22:09:33.418Z,6.50
2023-04-09T22:12:00.486Z,6.60
2023-04-09T22:14:27.536Z,6.23
2023-04-09T22:16:54.612Z,6.97
2023-04-09T22:19:21.738Z,6.03
2023-04-09T22:21:48.876Z,6.57
2023-04-09T22:24:15.943Z,6.47
2023-04-09T22:26:44.329Z,6.97
2023-04-09T22:29:11.402Z,6.30
2023-04-09T22:31:38.602Z,6.80
2023-04-09T22:34:19.335Z,7.03
2023-04-09T22:36:47.593Z,6.57
2023-04-09T22:39:14.632Z,6.50
2023-04-09T22:41:41.678Z,6.93
2023-04-09T22:44:10.191Z,7.47
2023-04-09T22:46:37.353Z,7.17
2023-04-09T22:49:05.881Z,6.77
2023-04-09T22:51:33.484Z,6.87
2023-04-09T22:54:00.619Z,6.93
2023-04-09T22:56:27.771Z,6.43
2023-04-09T22:58:55.082Z,7.13
2023-04-09T23:01:23.715Z,6.33
2023-04-09T23:03:51.429Z,6.03
2023-04-09T23:06:18.593Z,6.70
2023-04-09T23:08:45.923Z,6.00
2023-04-09T23:11:13.002Z,6.53
2023-04-09T23:13:40.286Z,6.37
2023-04-09T23:16:08.385Z,7.07
2023-04-09T23:18:37.185Z,7.00
2023-04-09T23:21:04.735Z,6.70
2023-04-09T23:23:31.807Z,6.37
2023-04-09T23:25:58.817Z,6.30
2023-04-09T23:28:25.890Z,6.50
2023-04-09T23:30:52.961Z,6.80
2023-04-09T23:33:20.109Z,6.50
2023-04-09T23:35:48.639Z,5.97
2023-04-09T23:38:15.883Z,5.87
2023-04-09T23:40:42.990Z,6.07
2023-04-09T23:43:10.200Z,6.17
2023-04-09T23:45:37.317Z,7.07
2023-04-09T23:48:06.166Z,7.77
2023-04-09T23:50:33.287Z,7.23
2023-04-09T23:53:01.785Z,6.40
2023-04-09T23:55:28.906Z,6.57
2023-04-09T23:57:55.962Z,6.80
